sensor_id;sensor_type;location;lat;lon;timestamp;P1;durP1;ratioP1;P2;durP2;ratioP2
13967;SDS011;39536;52.198;9.920;2023-04-06T00:02:12;7.90;;;7.20;;
13967;SDS011;39536;52.198;9.920;2023-04-06T00:04:38;7.40;;;6.80;;
13967;SDS011;39536;52.198;9.920;2023-04-06T00:07:06;6.60;;;6.10;;
13967;SDS011;39536;52.198;9.920;2023-04-06T00:09:33;6.53;;;5.93;;
13967;SDS011;39536;52.198;9.920;2023-04-06T00:11:59;8.07;;;7.37;;
13967;SDS011;39536;52.198;9.920;2023-04-06T00:14:26;7.17;;;6.47;;
13967;SDS011;39536;52.198;9.920;2023-04-06T00:16:53;7.07;;;6.40;;
13967;SDS011;39536;52.198;9.920;2023-04-06T00:19:20;7.87;;;7.07;;
13967;SDS011;39536;52.198;9.920;2023-04-06T00:21:46;6.70;;;6.07;;
13967;SDS011;39536;52.198;9.920;2023-04-06T00:24:14;6.73;;;5.80;;
13967;SDS011;39536;52.198;9.920;2023-04-06T00:26:41;6.17;;;5.67;;
13967;SDS011;39536;52.198;9.920;2023-04-06T00:29:08;6.93;;;6.20;;
13967;SDS011;39536;52.198;9.920;2023-04-06T00:31:34;7.33;;;6.60;;
13967;SDS011;39536;52.198;9.920;2023-04-06T00:34:01;9.40;;;7.00;;
13967;SDS011;39536;52.198;9.920;2023-04-06T00:36:27;7.57;;;6.87;;
13967;SDS011;39536;52.198;9.920;2023-04-06T00:38:55;10.70;;;7.63;;
13967;SDS011;39536;52.198;9.920;2023-04-06T00:41:22;7.80;;;7.10;;
13967;SDS011;39536;52.198;9.920;2023-04-06T00:43:49;8.70;;;7.70;;
13967;SDS011;39536;52.198;9.920;2023-04-06T00:46:16;8.73;;;8.03;;
13967;SDS011;39536;52.198;9.920;2023-04-06T00:48:42;7.93;;;7.13;;
13967;SDS011;39536;52.198;9.920;2023-04-06T00:51:09;8.60;;;7.67;;
13967;SDS011;39536;52.198;9.920;2023-04-06T00:53:36;11.10;;;7.67;;
13967;SDS011;39536;52.198;9.920;2023-04-06T00:56:02;8.70;;;7.90;;
13967;SDS011;39536;52.198;9.920;2023-04-06T00:58:31;8.70;;;7.60;;
13967;SDS011;39536;52.198;9.920;2023-04-06T01:00:57;8.53;;;7.83;;
13967;SDS011;39536;52.198;9.920;2023-04-06T01:03:24;8.70;;;7.97;;
13967;SDS011;39536;52.198;9.920;2023-04-06T01:05:51;9.30;;;8.50;;
13967;SDS011;39536;52.198;9.920;2023-04-06T01:08:23;9.23;;;8.47;;
13967;SDS011;39536;52.198;9.920;2023-04-06T01:10:49;9.97;;;9.23;;
13967;SDS011;39536;52.198;9.920;2023-04-06T01:13:16;10.47;;;9.50;;
13967;SDS011;39536;52.198;9.920;2023-04-06T01:15:44;10.17;;;9.27;;
13967;SDS011;39536;52.198;9.920;2023-04-06T01:18:12;11.00;;;9.93;;
13967;SDS011;39536;52.198;9.920;2023-04-06T01:20:39;10.50;;;9.60;;
13967;SDS011;39536;52.198;9.920;2023-04-06T01:23:07;10.23;;;9.33;;
13967;SDS011;39536;52.198;9.920;2023-04-06T01:25:33;10.80;;;9.87;;
13967;SDS011;39536;52.198;9.920;2023-04-06T01:28:00;10.87;;;9.97;;
13967;SDS011;39536;52.198;9.920;2023-04-06T01:30:27;11.00;;;10.00;;
13967;SDS011;39536;52.198;9.920;2023-04-06T01:32:53;12.13;;;11.03;;
13967;SDS011;39536;52.198;9.920;2023-04-06T01:35:20;12.20;;;10.97;;
13967;SDS011;39536;52.198;9.920;2023-04-06T01:37:46;11.17;;;10.17;;
13967;SDS011;39536;52.198;9.920;2023-04-06T01:40:14;11.17;;;10.10;;
13967;SDS011;39536;52.198;9.920;2023-04-06T01:42:41;11.23;;;10.33;;
13967;SDS011;39536;52.198;9.920;2023-04-06T01:45:08;11.47;;;10.47;;
13967;SDS011;39536;52.198;9.920;2023-04-06T01:47:35;10.97;;;10.07;;
13967;SDS011;39536;52.198;9.920;2023-04-06T01:50:02;11.43;;;10.00;;
13967;SDS011;39536;52.198;9.920;2023-04-06T01:52:31;10.73;;;9.73;;
13967;SDS011;39536;52.198;9.920;2023-04-06T01:54:57;10.83;;;9.93;;
13967;SDS011;39536;52.198;9.920;2023-04-06T01:57:25;11.47;;;10.27;;
13967;SDS011;39536;52.198;9.920;2023-04-06T01:59:52;11.27;;;9.97;;
13967;SDS011;39536;52.198;9.920;2023-04-06T02:02:19;11.30;;;10.27;;
13967;SDS011;39536;52.198;9.920;2023-04-06T02:04:45;11.80;;;10.80;;
13967;SDS011;39536;52.198;9.920;2023-04-06T02:07:12;11.60;;;10.43;;
13967;SDS011;39536;52.198;9.920;2023-04-06T02:09:38;10.80;;;9.90;;
13967;SDS011;39536;52.198;9.920;2023-04-06T02:12:05;11.83;;;10.83;;
13967;SDS011;39536;52.198;9.920;2023-04-06T02:14:33;12.63;;;10.57;;
13967;SDS011;39536;52.198;9.920;2023-04-06T02:16:59;11.33;;;10.20;;
13967;SDS011;39536;52.198;9.920;2023-04-06T02:19:26;14.17;;;10.77;;
13967;SDS011;39536;52.198;9.920;2023-04-06T02:21:52;10.80;;;9.90;;
13967;SDS011;39536;52.198;9.920;2023-04-06T02:24:19;10.37;;;9.47;;
13967;SDS011;39536;52.198;9.920;2023-04-06T02:26:46;11.07;;;10.03;;
13967;SDS011;39536;52.198;9.920;2023-04-06T02:29:12;12.00;;;10.93;;
13967;SDS011;39536;52.198;9.920;2023-04-06T02:31:40;11.77;;;10.63;;
13967;SDS011;39536;52.198;9.920;2023-04-06T02:34:07;11.10;;;10.20;;
13967;SDS011;39536;52.198;9.920;2023-04-06T02:36:36;11.00;;;10.00;;
13967;SDS011;39536;52.198;9.920;2023-04-06T02:39:02;11.73;;;10.73;;
13967;SDS011;39536;52.198;9.920;2023-04-06T02:41:29;10.80;;;10.00;;
13967;SDS011;39536;52.198;9.920;2023-04-06T02:43:55;10.67;;;9.77;;
13967;SDS011;39536;52.198;9.920;2023-04-06T02:46:22;11.70;;;10.50;;
13967;SDS011;39536;52.198;9.920;2023-04-06T02:48:50;10.73;;;9.83;;
13967;SDS011;39536;52.198;9.920;2023-04-06T02:51:16;11.30;;;10.50;;
13967;SDS011;39536;52.198;9.920;2023-04-06T02:53:43;11.83;;;10.63;;
13967;SDS011;39536;52.198;9.920;2023-04-06T02:56:10;11.83;;;10.83;;
13967;SDS011;39536;52.198;9.920;2023-04-06T02:58:36;12.20;;;11.10;;
13967;SDS011;39536;52.198;9.920;2023-04-06T03:01:03;11.33;;;10.40;;
13967;SDS011;39536;52.198;9.920;2023-04-06T03:03:30;10.43;;;9.63;;
13967;SDS011;39536;52.198;9.920;2023-04-06T03:05:58;10.47;;;9.57;;
13967;SDS011;39536;52.198;9.920;2023-04-06T03:08:25;11.33;;;10.43;;
13967;SDS011;39536;52.198;9.920;2023-04-06T03:10:51;11.40;;;10.50;;
13967;SDS011;39536;52.198;9.920;2023-04-06T03:13:18;12.03;;;11.03;;
13967;SDS011;39536;52.198;9.920;2023-04-06T03:15:45;12.50;;;10.47;;
13967;SDS011;39536;52.198;9.920;2023-04-06T03:18:11;11.80;;;9.27;;
13967;SDS011;39536;52.198;9.920;2023-04-06T03:20:38;10.70;;;9.87;;
13967;SDS011;39536;52.198;9.920;2023-04-06T03:23:07;10.63;;;9.83;;
13967;SDS011;39536;52.198;9.920;2023-04-06T03:25:33;10.47;;;9.53;;
13967;SDS011;39536;52.198;9.920;2023-04-06T03:28:00;10.90;;;10.00;;
13967;SDS011;39536;52.198;9.920;2023-04-06T03:30:26;11.10;;;10.20;;
13967;SDS011;39536;52.198;9.920;2023-04-06T03:32:53;11.23;;;10.23;;
13967;SDS011;39536;52.198;9.920;2023-04-06T03:35:19;12.40;;;10.50;;
13967;SDS011;39536;52.198;9.920;2023-04-06T03:37:46;11.77;;;10.77;;
13967;SDS011;39536;52.198;9.920;2023-04-06T03:40:14;12.37;;;11.13;;
13967;SDS011;39536;52.198;9.920;2023-04-06T03:42:41;12.67;;;11.47;;
13967;SDS011;39536;52.198;9.920;2023-04-06T03:45:08;14.00;;;12.80;;
13967;SDS011;39536;52.198;9.920;2023-04-06T03:47:35;13.63;;;12.23;;
13967;SDS011;39536;52.198;9.920;2023-04-06T03:50:01;13.10;;;11.80;;
13967;SDS011;39536;52.198;9.920;2023-04-06T03:52:28;13.23;;;12.13;;
13967;SDS011;39536;52.198;9.920;2023-04-06T03:54:55;12.80;;;11.60;;
13967;SDS011;39536;52.198;9.920;2023-04-06T03:57:23;13.00;;;11.90;;
13967;SDS011;39536;52.198;9.920;2023-04-06T03:59:50;13.13;;;11.93;;
13967;SDS011;39536;52.198;9.920;2023-04-06T04:02:16;12.73;;;11.63;;
13967;SDS011;39536;52.198;9.920;2023-04-06T04:04:43;12.37;;;11.27;;
13967;SDS011;39536;52.198;9.920;2023-04-06T04:07:09;11.40;;;10.50;;
13967;SDS011;39536;52.198;9.920;2023-04-06T04:09:36;12.03;;;10.93;;
13967;SDS011;39536;52.198;9.920;2023-04-06T04:12:03;12.37;;;10.90;;
13967;SDS011;39536;52.198;9.920;2023-04-06T04:14:31;11.77;;;10.57;;
13967;SDS011;39536;52.198;9.920;2023-04-06T04:16:57;12.87;;;11.67;;
13967;SDS011;39536;52.198;9.920;2023-04-06T04:19:24;13.03;;;11.83;;
13967;SDS011;39536;52.198;9.920;2023-04-06T04:21:50;15.07;;;12.57;;
13967;SDS011;39536;52.198;9.920;2023-04-06T04:24:17;14.77;;;13.47;;
13967;SDS011;39536;52.198;9.920;2023-04-06T04:26:43;14.37;;;13.07;;
13967;SDS011;39536;52.198;9.920;2023-04-06T04:29:10;15.30;;;14.00;;
13967;SDS011;39536;52.198;9.920;2023-04-06T04:31:38;15.30;;;13.90;;
13967;SDS011;39536;52.198;9.920;2023-04-06T04:34:04;14.87;;;13.57;;
13967;SDS011;39536;52.198;9.920;2023-04-06T04:36:32;15.20;;;13.80;;
13967;SDS011;39536;52.198;9.920;2023-04-06T04:38:59;14.40;;;12.90;;
13967;SDS011;39536;52.198;9.920;2023-04-06T04:41:26;14.87;;;13.40;;
13967;SDS011;39536;52.198;9.920;2023-04-06T04:43:53;14.17;;;12.87;;
13967;SDS011;39536;52.198;9.920;2023-04-06T04:46:20;13.40;;;12.00;;
13967;SDS011;39536;52.198;9.920;2023-04-06T04:48:48;14.70;;;13.27;;
13967;SDS011;39536;52.198;9.920;2023-04-06T04:51:15;14.00;;;12.80;;
13967;SDS011;39536;52.198;9.920;2023-04-06T04:53:41;17.87;;;12.17;;
13967;SDS011;39536;52.198;9.920;2023-04-06T04:56:08;12.43;;;11.30;;
13967;SDS011;39536;52.198;9.920;2023-04-06T04:58:35;13.57;;;11.07;;
13967;SDS011;39536;52.198;9.920;2023-04-06T05:01:01;12.73;;;11.43;;
13967;SDS011;39536;52.198;9.920;2023-04-06T05:03:28;11.63;;;10.63;;
13967;SDS011;39536;52.198;9.920;2023-04-06T05:05:56;12.43;;;11.33;;
13967;SDS011;39536;52.198;9.920;2023-04-06T05:08:22;10.97;;;10.00;;
13967;SDS011;39536;52.198;9.920;2023-04-06T05:10:49;11.70;;;10.60;;
13967;SDS011;39536;52.198;9.920;2023-04-06T05:13:16;11.87;;;10.77;;
13967;SDS011;39536;52.198;9.920;2023-04-06T05:15:42;12.03;;;10.63;;
13967;SDS011;39536;52.198;9.920;2023-04-06T05:18:09;10.33;;;9.47;;
13967;SDS011;39536;52.198;9.920;2023-04-06T05:20:37;11.47;;;10.40;;
13967;SDS011;39536;52.198;9.920;2023-04-06T05:23:06;12.27;;;10.47;;
13967;SDS011;39536;52.198;9.920;2023-04-06T05:25:32;11.70;;;10.40;;
13967;SDS011;39536;52.198;9.920;2023-04-06T05:27:59;11.10;;;10.00;;
13967;SDS011;39536;52.198;9.920;2023-04-06T05:30:27;13.67;;;10.23;;
13967;SDS011;39536;52.198;9.920;2023-04-06T05:32:53;14.27;;;11.83;;
13967;SDS011;39536;52.198;9.920;2023-04-06T05:35:20;10.93;;;9.70;;
13967;SDS011;39536;52.198;9.920;2023-04-06T05:37:47;9.93;;;9.03;;
13967;SDS011;39536;52.198;9.920;2023-04-06T05:40:15;10.43;;;9.47;;
13967;SDS011;39536;52.198;9.920;2023-04-06T05:42:42;11.33;;;9.43;;
13967;SDS011;39536;52.198;9.920;2023-04-06T05:45:09;10.87;;;9.87;;
13967;SDS011;39536;52.198;9.920;2023-04-06T05:47:41;10.07;;;8.93;;
13967;SDS011;39536;52.198;9.920;2023-04-06T05:50:08;11.20;;;9.73;;
13967;SDS011;39536;52.198;9.920;2023-04-06T05:52:35;12.30;;;9.30;;
13967;SDS011;39536;52.198;9.920;2023-04-06T05:55:02;15.80;;;9.50;;
13967;SDS011;39536;52.198;9.920;2023-04-06T05:57:30;9.90;;;8.37;;
13967;SDS011;39536;52.198;9.920;2023-04-06T05:59:56;19.10;;;9.03;;
13967;SDS011;39536;52.198;9.920;2023-04-06T06:02:23;13.80;;;9.67;;
13967;SDS011;39536;52.198;9.920;2023-04-06T06:04:50;18.07;;;10.43;;
13967;SDS011;39536;52.198;9.920;2023-04-06T06:07:16;21.03;;;10.23;;
13967;SDS011;39536;52.198;9.920;2023-04-06T06:09:43;11.60;;;8.90;;
13967;SDS011;39536;52.198;9.920;2023-04-06T06:12:09;13.63;;;9.90;;
13967;SDS011;39536;52.198;9.920;2023-04-06T06:14:37;18.23;;;10.03;;
13967;SDS011;39536;52.198;9.920;2023-04-06T06:17:04;15.47;;;9.87;;
13967;SDS011;39536;52.198;9.920;2023-04-06T06:19:30;12.53;;;9.97;;
13967;SDS011;39536;52.198;9.920;2023-04-06T06:21:57;15.00;;;10.60;;
13967;SDS011;39536;52.198;9.920;2023-04-06T06:24:23;14.93;;;10.67;;
13967;SDS011;39536;52.198;9.920;2023-04-06T06:26:50;18.47;;;10.83;;
13967;SDS011;39536;52.198;9.920;2023-04-06T06:29:17;13.00;;;9.73;;
13967;SDS011;39536;52.198;9.920;2023-04-06T06:31:45;20.93;;;9.97;;
13967;SDS011;39536;52.198;9.920;2023-04-06T06:34:11;12.87;;;9.40;;
13967;SDS011;39536;52.198;9.920;2023-04-06T06:36:38;11.80;;;9.93;;
13967;SDS011;39536;52.198;9.920;2023-04-06T06:39:05;10.27;;;9.17;;
13967;SDS011;39536;52.198;9.920;2023-04-06T06:41:31;12.57;;;9.43;;
13967;SDS011;39536;52.198;9.920;2023-04-06T06:43:58;10.57;;;9.43;;
13967;SDS011;39536;52.198;9.920;2023-04-06T06:46:24;10.30;;;9.30;;
13967;SDS011;39536;52.198;9.920;2023-04-06T06:48:52;10.07;;;9.00;;
13967;SDS011;39536;52.198;9.920;2023-04-06T06:51:19;11.47;;;9.63;;
13967;SDS011;39536;52.198;9.920;2023-04-06T06:53:45;19.47;;;9.93;;
13967;SDS011;39536;52.198;9.920;2023-04-06T06:56:12;28.17;;;18.33;;
13967;SDS011;39536;52.198;9.920;2023-04-06T06:58:41;27.37;;;18.17;;
13967;SDS011;39536;52.198;9.920;2023-04-06T07:01:08;44.07;;;23.40;;
13967;SDS011;39536;52.198;9.920;2023-04-06T07:03:35;25.57;;;16.57;;
13967;SDS011;39536;52.198;9.920;2023-04-06T07:06:02;46.27;;;24.07;;
13967;SDS011;39536;52.198;9.920;2023-04-06T07:08:29;15.37;;;13.23;;
13967;SDS011;39536;52.198;9.920;2023-04-06T07:10:56;15.07;;;10.30;;
13967;SDS011;39536;52.198;9.920;2023-04-06T07:13:22;8.20;;;7.40;;
13967;SDS011;39536;52.198;9.920;2023-04-06T07:15:49;8.00;;;7.30;;
13967;SDS011;39536;52.198;9.920;2023-04-06T07:18:16;8.17;;;7.47;;
13967;SDS011;39536;52.198;9.920;2023-04-06T07:20:43;8.30;;;7.67;;
13967;SDS011;39536;52.198;9.920;2023-04-06T07:23:11;10.47;;;8.03;;
13967;SDS011;39536;52.198;9.920;2023-04-06T07:25:38;13.30;;;8.40;;
13967;SDS011;39536;52.198;9.920;2023-04-06T07:28:04;8.30;;;7.40;;
13967;SDS011;39536;52.198;9.920;2023-04-06T07:30:31;8.40;;;7.50;;
13967;SDS011;39536;52.198;9.920;2023-04-06T07:32:58;7.83;;;7.23;;
13967;SDS011;39536;52.198;9.920;2023-04-06T07:35:25;7.90;;;7.07;;
13967;SDS011;39536;52.198;9.920;2023-04-06T07:37:52;11.67;;;10.57;;
13967;SDS011;39536;52.198;9.920;2023-04-06T07:40:20;7.90;;;7.30;;
13967;SDS011;39536;52.198;9.920;2023-04-06T07:42:47;8.23;;;7.50;;
13967;SDS011;39536;52.198;9.920;2023-04-06T07:45:13;7.90;;;7.27;;
13967;SDS011;39536;52.198;9.920;2023-04-06T07:47:41;8.10;;;7.40;;
13967;SDS011;39536;52.198;9.920;2023-04-06T07:50:08;7.97;;;7.30;;
13967;SDS011;39536;52.198;9.920;2023-04-06T07:52:35;7.87;;;7.13;;
13967;SDS011;39536;52.198;9.920;2023-04-06T07:55:02;7.97;;;7.37;;
13967;SDS011;39536;52.198;9.920;2023-04-06T07:57:30;8.77;;;7.87;;
13967;SDS011;39536;52.198;9.920;2023-04-06T07:59:57;9.90;;;7.40;;
13967;SDS011;39536;52.198;9.920;2023-04-06T08:02:25;8.00;;;7.30;;
13967;SDS011;39536;52.198;9.920;2023-04-06T08:04:52;8.17;;;7.37;;
13967;SDS011;39536;52.198;9.920;2023-04-06T08:07:18;9.93;;;7.37;;
13967;SDS011;39536;52.198;9.920;2023-04-06T08:09:45;7.57;;;6.97;;
13967;SDS011;39536;52.198;9.920;2023-04-06T08:12:12;7.70;;;6.67;;
13967;SDS011;39536;52.198;9.920;2023-04-06T08:14:40;7.47;;;6.87;;
13967;SDS011;39536;52.198;9.920;2023-04-06T08:17:06;8.50;;;7.63;;
13967;SDS011;39536;52.198;9.920;2023-04-06T08:19:33;7.27;;;6.57;;
13967;SDS011;39536;52.198;9.920;2023-04-06T08:22:00;9.00;;;7.60;;
13967;SDS011;39536;52.198;9.920;2023-04-06T08:24:27;9.37;;;7.87;;
13967;SDS011;39536;52.198;9.920;2023-04-06T08:26:54;14.20;;;8.20;;
13967;SDS011;39536;52.198;9.920;2023-04-06T08:29:20;7.20;;;6.60;;
13967;SDS011;39536;52.198;9.920;2023-04-06T08:31:48;8.10;;;7.33;;
13967;SDS011;39536;52.198;9.920;2023-04-06T08:34:15;6.83;;;6.23;;
13967;SDS011;39536;52.198;9.920;2023-04-06T08:36:41;8.17;;;7.33;;
13967;SDS011;39536;52.198;9.920;2023-04-06T08:39:08;8.13;;;7.43;;
13967;SDS011;39536;52.198;9.920;2023-04-06T08:41:35;7.03;;;6.43;;
13967;SDS011;39536;52.198;9.920;2023-04-06T08:44:02;7.77;;;7.13;;
13967;SDS011;39536;52.198;9.920;2023-04-06T08:46:30;9.43;;;7.17;;
13967;SDS011;39536;52.198;9.920;2023-04-06T08:48:59;15.63;;;7.83;;
13967;SDS011;39536;52.198;9.920;2023-04-06T08:51:26;10.10;;;7.83;;
13967;SDS011;39536;52.198;9.920;2023-04-06T08:53:55;7.60;;;7.00;;
13967;SDS011;39536;52.198;9.920;2023-04-06T08:56:23;6.97;;;6.30;;
13967;SDS011;39536;52.198;9.920;2023-04-06T08:58:51;8.13;;;7.43;;
13967;SDS011;39536;52.198;9.920;2023-04-06T09:01:20;7.27;;;6.67;;
13967;SDS011;39536;52.198;9.920;2023-04-06T09:03:48;9.27;;;7.33;;
13967;SDS011;39536;52.198;9.920;2023-04-06T09:06:17;7.70;;;6.80;;
13967;SDS011;39536;52.198;9.920;2023-04-06T09:08:44;7.87;;;7.20;;
13967;SDS011;39536;52.198;9.920;2023-04-06T09:11:11;7.97;;;7.33;;
13967;SDS011;39536;52.198;9.920;2023-04-06T09:13:44;7.07;;;6.43;;
13967;SDS011;39536;52.198;9.920;2023-04-06T09:16:11;7.50;;;6.73;;
13967;SDS011;39536;52.198;9.920;2023-04-06T09:18:38;7.80;;;7.10;;
13967;SDS011;39536;52.198;9.920;2023-04-06T09:21:05;7.07;;;6.40;;
13967;SDS011;39536;52.198;9.920;2023-04-06T09:23:34;7.87;;;7.20;;
13967;SDS011;39536;52.198;9.920;2023-04-06T09:26:07;7.37;;;6.50;;
13967;SDS011;39536;52.198;9.920;2023-04-06T09:28:42;8.03;;;7.33;;
13967;SDS011;39536;52.198;9.920;2023-04-06T09:31:10;8.87;;;7.77;;
13967;SDS011;39536;52.198;9.920;2023-04-06T09:33:37;7.37;;;6.67;;
13967;SDS011;39536;52.198;9.920;2023-04-06T09:36:05;7.33;;;6.73;;
13967;SDS011;39536;52.198;9.920;2023-04-06T09:38:35;8.83;;;7.87;;
13967;SDS011;39536;52.198;9.920;2023-04-06T09:41:03;8.50;;;7.80;;
13967;SDS011;39536;52.198;9.920;2023-04-06T09:43:30;8.50;;;7.80;;
13967;SDS011;39536;52.198;9.920;2023-04-06T09:45:56;8.17;;;7.57;;
13967;SDS011;39536;52.198;9.920;2023-04-06T09:48:25;8.13;;;7.33;;
13967;SDS011;39536;52.198;9.920;2023-04-06T09:50:56;9.07;;;7.90;;
13967;SDS011;39536;52.198;9.920;2023-04-06T09:53:26;7.80;;;7.00;;
13967;SDS011;39536;52.198;9.920;2023-04-06T09:55:56;8.40;;;7.60;;
13967;SDS011;39536;52.198;9.920;2023-04-06T09:58:26;7.37;;;6.77;;
13967;SDS011;39536;52.198;9.920;2023-04-06T10:01:01;13.37;;;7.60;;
13967;SDS011;39536;52.198;9.920;2023-04-06T10:03:33;8.70;;;8.00;;
13967;SDS011;39536;52.198;9.920;2023-04-06T10:06:09;8.97;;;7.83;;
13967;SDS011;39536;52.198;9.920;2023-04-06T10:08:41;7.50;;;6.87;;
13967;SDS011;39536;52.198;9.920;2023-04-06T10:11:13;8.57;;;7.63;;
13967;SDS011;39536;52.198;9.920;2023-04-06T10:13:39;7.27;;;6.77;;
13967;SDS011;39536;52.198;9.920;2023-04-06T10:16:07;7.90;;;7.27;;
13967;SDS011;39536;52.198;9.920;2023-04-06T10:18:34;8.63;;;7.17;;
13967;SDS011;39536;52.198;9.920;2023-04-06T10:21:01;7.67;;;6.87;;
13967;SDS011;39536;52.198;9.920;2023-04-06T10:23:33;9.23;;;6.53;;
13967;SDS011;39536;52.198;9.920;2023-04-06T10:26:02;10.03;;;7.80;;
13967;SDS011;39536;52.198;9.920;2023-04-06T10:28:31;8.17;;;7.37;;
13967;SDS011;39536;52.198;9.920;2023-04-06T10:31:01;8.03;;;7.33;;
13967;SDS011;39536;52.198;9.920;2023-04-06T10:33:30;8.03;;;7.43;;
13967;SDS011;39536;52.198;9.920;2023-04-06T10:35:57;9.57;;;8.73;;
13967;SDS011;39536;52.198;9.920;2023-04-06T10:38:32;7.90;;;7.20;;
13967;SDS011;39536;52.198;9.920;2023-04-06T10:41:03;8.73;;;7.23;;
13967;SDS011;39536;52.198;9.920;2023-04-06T10:43:32;9.50;;;8.50;;
13967;SDS011;39536;52.198;9.920;2023-04-06T10:46:00;8.07;;;7.40;;
13967;SDS011;39536;52.198;9.920;2023-04-06T10:48:35;7.90;;;6.60;;
13967;SDS011;39536;52.198;9.920;2023-04-06T10:51:06;10.40;;;9.43;;
13967;SDS011;39536;52.198;9.920;2023-04-06T10:53:34;9.47;;;8.57;;
13967;SDS011;39536;52.198;9.920;2023-04-06T10:56:01;9.10;;;8.30;;
13967;SDS011;39536;52.198;9.920;2023-04-06T10:58:29;8.40;;;7.70;;
13967;SDS011;39536;52.198;9.920;2023-04-06T11:00:57;9.47;;;8.60;;
13967;SDS011;39536;52.198;9.920;2023-04-06T11:03:24;9.67;;;8.77;;
13967;SDS011;39536;52.198;9.920;2023-04-06T11:05:52;10.00;;;9.30;;
13967;SDS011;39536;52.198;9.920;2023-04-06T11:08:22;9.50;;;8.60;;
13967;SDS011;39536;52.198;9.920;2023-04-06T11:10:49;8.57;;;7.87;;
13967;SDS011;39536;52.198;9.920;2023-04-06T11:13:16;10.33;;;9.10;;
13967;SDS011;39536;52.198;9.920;2023-04-06T11:15:43;9.33;;;8.40;;
13967;SDS011;39536;52.198;9.920;2023-04-06T11:18:11;8.67;;;7.97;;
13967;SDS011;39536;52.198;9.920;2023-04-06T11:20:37;9.83;;;9.03;;
13967;SDS011;39536;52.198;9.920;2023-04-06T11:23:04;9.67;;;8.70;;
13967;SDS011;39536;52.198;9.920;2023-04-06T11:25:31;9.17;;;8.40;;
13967;SDS011;39536;52.198;9.920;2023-04-06T11:27:58;9.13;;;8.40;;
13967;SDS011;39536;52.198;9.920;2023-04-06T11:30:24;13.43;;;9.97;;
13967;SDS011;39536;52.198;9.920;2023-04-06T11:32:51;10.00;;;9.10;;
13967;SDS011;39536;52.198;9.920;2023-04-06T11:35:22;10.37;;;9.57;;
13967;SDS011;39536;52.198;9.920;2023-04-06T11:37:49;9.13;;;8.43;;
13967;SDS011;39536;52.198;9.920;2023-04-06T11:40:20;10.60;;;9.70;;
13967;SDS011;39536;52.198;9.920;2023-04-06T11:42:51;9.47;;;8.70;;
13967;SDS011;39536;52.198;9.920;2023-04-06T11:45:18;9.97;;;9.13;;
13967;SDS011;39536;52.198;9.920;2023-04-06T11:47:45;10.00;;;9.30;;
13967;SDS011;39536;52.198;9.920;2023-04-06T11:50:23;11.90;;;9.60;;
13967;SDS011;39536;52.198;9.920;2023-04-06T11:52:57;10.07;;;9.23;;
13967;SDS011;39536;52.198;9.920;2023-04-06T11:55:25;9.30;;;8.60;;
13967;SDS011;39536;52.198;9.920;2023-04-06T11:57:52;10.40;;;9.10;;
13967;SDS011;39536;52.198;9.920;2023-04-06T12:00:19;10.03;;;9.23;;
13967;SDS011;39536;52.198;9.920;2023-04-06T12:02:49;10.80;;;9.73;;
13967;SDS011;39536;52.198;9.920;2023-04-06T12:05:16;10.17;;;9.37;;
13967;SDS011;39536;52.198;9.920;2023-04-06T12:07:44;9.97;;;9.27;;
13967;SDS011;39536;52.198;9.920;2023-04-06T12:10:11;10.40;;;9.50;;
13967;SDS011;39536;52.198;9.920;2023-04-06T12:12:38;10.50;;;9.70;;
13967;SDS011;39536;52.198;9.920;2023-04-06T12:15:05;10.50;;;9.50;;
13967;SDS011;39536;52.198;9.920;2023-04-06T12:17:32;11.23;;;10.33;;
13967;SDS011;39536;52.198;9.920;2023-04-06T12:19:59;10.23;;;9.43;;
13967;SDS011;39536;52.198;9.920;2023-04-06T12:22:25;11.30;;;10.40;;
13967;SDS011;39536;52.198;9.920;2023-04-06T12:24:53;11.07;;;10.27;;
13967;SDS011;39536;52.198;9.920;2023-04-06T12:27:20;11.20;;;10.30;;
13967;SDS011;39536;52.198;9.920;2023-04-06T12:29:47;10.73;;;9.93;;
13967;SDS011;39536;52.198;9.920;2023-04-06T12:32:13;9.20;;;8.50;;
13967;SDS011;39536;52.198;9.920;2023-04-06T12:34:40;10.73;;;9.67;;
13967;SDS011;39536;52.198;9.920;2023-04-06T12:37:07;10.13;;;9.33;;
13967;SDS011;39536;52.198;9.920;2023-04-06T12:39:33;11.63;;;10.53;;
13967;SDS011;39536;52.198;9.920;2023-04-06T12:42:02;10.47;;;9.67;;
13967;SDS011;39536;52.198;9.920;2023-04-06T12:44:29;12.10;;;11.10;;
13967;SDS011;39536;52.198;9.920;2023-04-06T12:46:56;10.83;;;9.93;;
13967;SDS011;39536;52.198;9.920;2023-04-06T12:49:22;10.77;;;9.97;;
13967;SDS011;39536;52.198;9.920;2023-04-06T12:51:49;11.10;;;10.13;;
13967;SDS011;39536;52.198;9.920;2023-04-06T12:54:16;11.23;;;10.10;;
13967;SDS011;39536;52.198;9.920;2023-04-06T12:56:42;10.73;;;9.83;;
13967;SDS011;39536;52.198;9.920;2023-04-06T12:59:11;10.13;;;9.27;;
13967;SDS011;39536;52.198;9.920;2023-04-06T13:01:37;11.10;;;10.10;;
13967;SDS011;39536;52.198;9.920;2023-04-06T13:04:04;9.73;;;8.93;;
13967;SDS011;39536;52.198;9.920;2023-04-06T13:06:31;10.40;;;9.60;;
13967;SDS011;39536;52.198;9.920;2023-04-06T13:08:57;9.73;;;8.93;;
13967;SDS011;39536;52.198;9.920;2023-04-06T13:11:25;9.97;;;9.27;;
13967;SDS011;39536;52.198;9.920;2023-04-06T13:13:51;9.73;;;9.03;;
13967;SDS011;39536;52.198;9.920;2023-04-06T13:16:19;10.20;;;9.20;;
13967;SDS011;39536;52.198;9.920;2023-04-06T13:18:46;10.20;;;9.30;;
13967;SDS011;39536;52.198;9.920;2023-04-06T13:21:13;9.80;;;9.10;;
13967;SDS011;39536;52.198;9.920;2023-04-06T13:23:49;10.00;;;9.20;;
13967;SDS011;39536;52.198;9.920;2023-04-06T13:26:16;10.23;;;9.33;;
13967;SDS011;39536;52.198;9.920;2023-04-06T13:28:42;10.60;;;9.80;;
13967;SDS011;39536;52.198;9.920;2023-04-06T13:31:09;9.57;;;8.70;;
13967;SDS011;39536;52.198;9.920;2023-04-06T13:33:36;10.43;;;9.23;;
13967;SDS011;39536;52.198;9.920;2023-04-06T13:36:03;9.90;;;9.10;;
13967;SDS011;39536;52.198;9.920;2023-04-06T13:38:32;9.97;;;8.97;;
13967;SDS011;39536;52.198;9.920;2023-04-06T13:41:00;9.53;;;8.70;;
13967;SDS011;39536;52.198;9.920;2023-04-06T13:43:27;8.77;;;7.87;;
13967;SDS011;39536;52.198;9.920;2023-04-06T13:45:54;8.13;;;7.43;;
13967;SDS011;39536;52.198;9.920;2023-04-06T13:48:22;8.53;;;7.83;;
13967;SDS011;39536;52.198;9.920;2023-04-06T13:50:50;8.83;;;8.13;;
13967;SDS011;39536;52.198;9.920;2023-04-06T13:53:17;8.60;;;7.80;;
13967;SDS011;39536;52.198;9.920;2023-04-06T13:55:44;9.20;;;8.47;;
13967;SDS011;39536;52.198;9.920;2023-04-06T13:58:19;9.00;;;8.30;;
13967;SDS011;39536;52.198;9.920;2023-04-06T14:00:46;9.77;;;8.93;;
13967;SDS011;39536;52.198;9.920;2023-04-06T14:03:13;8.57;;;7.87;;
13967;SDS011;39536;52.198;9.920;2023-04-06T14:05:39;9.27;;;8.40;;
13967;SDS011;39536;52.198;9.920;2023-04-06T14:08:06;9.30;;;8.60;;
13967;SDS011;39536;52.198;9.920;2023-04-06T14:10:36;9.00;;;8.03;;
13967;SDS011;39536;52.198;9.920;2023-04-06T14:13:03;8.23;;;7.63;;
13967;SDS011;39536;52.198;9.920;2023-04-06T14:15:31;9.00;;;8.20;;
13967;SDS011;39536;52.198;9.920;2023-04-06T14:17:58;9.27;;;8.57;;
13967;SDS011;39536;52.198;9.920;2023-04-06T14:20:25;9.27;;;8.57;;
13967;SDS011;39536;52.198;9.920;2023-04-06T14:22:52;9.87;;;8.93;;
13967;SDS011;39536;52.198;9.920;2023-04-06T14:25:19;9.50;;;8.40;;
13967;SDS011;39536;52.198;9.920;2023-04-06T14:27:46;9.47;;;8.67;;
13967;SDS011;39536;52.198;9.920;2023-04-06T14:30:14;9.00;;;8.30;;
13967;SDS011;39536;52.198;9.920;2023-04-06T14:32:42;8.90;;;8.20;;
13967;SDS011;39536;52.198;9.920;2023-04-06T14:35:09;8.53;;;7.70;;
13967;SDS011;39536;52.198;9.920;2023-04-06T14:37:36;9.40;;;8.50;;